createdAt,value
2022-08-07T00:02:56.107Z,89.70
2022-08-07T00:08:00.129Z,90.50
2022-08-07T00:13:23.469Z,91.00
2022-08-07T00:18:29.810Z,90.90
2022-08-07T00:23:34.304Z,91.20
2022-08-07T00:28:46.219Z,90.60
2022-08-07T00:34:08.465Z,90.50
2022-08-07T00:39:17.022Z,91.10
2022-08-07T00:44:22.404Z,90.90
2022-08-07T00:50:20.314Z,90.50
2022-08-07T00:54:55.591Z,91.10
2022-08-07T01:00:00.572Z,91.10
2022-08-07T01:05:19.098Z,91.50
2022-08-07T01:10:26.616Z,91.20
2022-08-07T01:16:00.672Z,90.60
2022-08-07T01:21:04.055Z,91.00
2022-08-07T01:26:21.751Z,90.90
2022-08-07T01:31:30.044Z,91.90
2022-08-07T01:36:59.234Z,93.00
2022-08-07T01:42:38.917Z,92.60
2022-08-07T01:48:29.168Z,92.60
2022-08-07T01:53:00.399Z,92.50
2022-08-07T01:58:29.025Z,92.20
2022-08-07T02:03:48.736Z,93.30
2022-08-07T02:08:56.811Z,93.30
2022-08-07T02:14:07.331Z,93.40
2022-08-07T02:20:05.246Z,94.30
2022-08-07T02:24:44.843Z,94.70
2022-08-07T02:29:54.106Z,95.50
2022-08-07T02:35:06.196Z,95.30
2022-08-07T02:40:30.910Z,95.50
2022-08-07T02:45:58.938Z,95.50
2022-08-07T02:51:29.072Z,96.00
2022-08-07T02:56:34.818Z,95.90
2022-08-07T03:01:39.302Z,95.90
2022-08-07T03:06:48.367Z,96.20
2022-08-07T03:11:57.928Z,96.70
2022-08-07T03:17:23.130Z,97.90
2022-08-07T03:22:29.622Z,98.70
2022-08-07T03:27:58.833Z,99.20
2022-08-07T03:33:01.670Z,99.70
2022-08-07T03:38:10.594Z,99.70
2022-08-07T03:43:20.062Z,99.00
2022-08-07T03:48:33.205Z,98.60
2022-08-07T03:54:33.000Z,98.50
2022-08-07T03:59:21.618Z,99.00
2022-08-07T04:04:27.924Z,98.10
2022-08-07T04:09:45.505Z,97.50
2022-08-07T04:15:01.025Z,97.20
2022-08-07T04:20:11.636Z,97.00
2022-08-07T04:25:15.666Z,97.80
2022-08-07T04:30:39.266Z,98.50
2022-08-07T04:36:06.510Z,97.80
2022-08-07T04:41:18.241Z,97.50
2022-08-07T04:46:34.430Z,96.80
2022-08-07T04:51:46.872Z,97.10
2022-08-07T04:58:13.821Z,96.20
2022-08-07T05:02:25.619Z,96.40
2022-08-07T05:07:36.895Z,96.10
2022-08-07T05:12:52.814Z,96.30
2022-08-07T05:18:00.452Z,96.50
2022-08-07T05:23:06.888Z,95.60
2022-08-07T05:28:23.251Z,95.30
2022-08-07T05:33:35.563Z,94.70
2022-08-07T05:39:00.643Z,94.40
2022-08-07T05:44:12.284Z,93.30
2022-08-07T05:49:18.868Z,93.50
2022-08-07T05:54:44.635Z,93.10
2022-08-07T05:59:57.199Z,91.20
2022-08-07T06:05:06.973Z,90.20
2022-08-07T06:10:15.162Z,89.20
2022-08-07T06:15:22.236Z,90.40
2022-08-07T06:20:50.994Z,88.10
2022-08-07T06:26:13.161Z,84.10
2022-08-07T06:31:16.646Z,82.60
2022-08-07T06:36:27.577Z,81.00
2022-08-07T06:42:02.439Z,79.10
2022-08-07T06:47:23.270Z,76.60
2022-08-07T06:52:38.125Z,75.80
2022-08-07T06:57:50.021Z,73.70
2022-08-07T07:03:01.115Z,72.70
2022-08-07T07:08:18.627Z,71.80
2022-08-07T07:13:55.388Z,70.80
2022-08-07T07:19:00.721Z,70.90
2022-08-07T07:24:17.350Z,67.70
2022-08-07T07:29:56.988Z,68.10
2022-08-07T07:34:48.594Z,68.60
2022-08-07T07:39:55.603Z,64.90
2022-08-07T07:44:59.730Z,66.40
2022-08-07T07:50:33.020Z,66.40
2022-08-07T07:55:37.681Z,64.00
2022-08-07T08:00:53.770Z,63.70
2022-08-07T08:05:57.364Z,64.60
2022-08-07T08:11:02.085Z,61.00
2022-08-07T08:16:07.698Z,62.60
2022-08-07T08:21:55.815Z,59.70
2022-08-07T08:27:09.947Z,59.60
2022-08-07T08:32:25.344Z,60.20
2022-08-07T08:38:00.651Z,58.60
2022-08-07T08:43:10.594Z,58.90
2022-08-07T08:48:20.726Z,58.80
2022-08-07T08:53:35.028Z,59.70
2022-08-07T08:58:54.550Z,57.30
2022-08-07T09:04:01.182Z,57.80
2022-08-07T09:09:30.009Z,57.00
2022-08-07T09:14:41.045Z,59.40
2022-08-07T09:20:00.853Z,54.30
2022-08-07T09:25:14.594Z,57.30
2022-08-07T09:30:27.978Z,55.60
2022-08-07T09:36:04.588Z,54.90
2022-08-07T09:41:12.753Z,54.90
2022-08-07T09:47:52.479Z,55.20
2022-08-07T09:52:16.728Z,54.50
2022-08-07T09:58:12.510Z,55.50
2022-08-07T10:04:03.947Z,56.60
2022-08-07T10:09:16.240Z,53.30
2022-08-07T10:14:41.953Z,54.10
2022-08-07T10:19:56.518Z,53.00
2022-08-07T10:25:10.156Z,55.30
2022-08-07T10:30:26.386Z,51.70
2022-08-07T10:35:53.321Z,51.50
2022-08-07T10:41:05.546Z,51.10
2022-08-07T10:46:14.553Z,50.60
2022-08-07T10:51:57.560Z,51.20
2022-08-07T10:56:53.588Z,52.50
2022-08-07T11:02:05.023Z,51.60
2022-08-07T11:07:57.033Z,49.90
2022-08-07T11:13:01.966Z,48.90
2022-08-07T11:18:16.007Z,50.30
2022-08-07T11:23:30.683Z,48.70
2022-08-07T11:28:44.738Z,47.80
2022-08-07T11:34:06.570Z,48.80
2022-08-07T11:39:39.834Z,48.40
2022-08-07T11:44:57.527Z,48.40
2022-08-07T11:50:32.037Z,50.00
2022-08-07T11:56:25.131Z,46.80
2022-08-07T12:02:00.036Z,48.50
2022-08-07T12:07:08.114Z,49.10
2022-08-07T12:12:27.229Z,46.30
2022-08-07T12:17:55.958Z,46.40
2022-08-07T12:23:37.169Z,46.40
2022-08-07T12:28:53.094Z,51.70
2022-08-07T12:34:01.961Z,53.80
2022-08-07T12:39:09.554Z,51.40
2022-08-07T12:44:32.658Z,50.00
2022-08-07T12:49:48.816Z,45.60
2022-08-07T12:55:16.514Z,49.50
2022-08-07T13:00:32.759Z,49.50
2022-08-07T13:06:04.522Z,46.80
2022-08-07T13:11:31.309Z,44.40
2022-08-07T13:17:02.533Z,43.90
2022-08-07T13:22:20.001Z,46.40
2022-08-07T13:28:11.064Z,45.60
2022-08-07T13:34:14.870Z,48.20
2022-08-07T13:38:41.926Z,44.60
2022-08-07T13:43:52.853Z,46.70
2022-08-07T13:49:03.872Z,45.60
2022-08-07T13:54:16.593Z,44.00
2022-08-07T13:59:33.942Z,48.40
2022-08-07T14:04:54.801Z,43.40
2022-08-07T14:10:15.632Z,44.70
2022-08-07T14:15:31.653Z,44.40
2022-08-07T14:22:41.016Z,44.80
2022-08-07T14:26:08.770Z,43.60
2022-08-07T14:31:43.151Z,43.80
2022-08-07T14:36:56.407Z,42.80
2022-08-07T14:42:20.016Z,42.70
2022-08-07T14:47:26.726Z,43.80
2022-08-07T14:52:43.747Z,43.80
2022-08-07T14:57:54.609Z,42.40
2022-08-07T15:03:16.644Z,44.00
2022-08-07T15:08:32.300Z,44.40
2022-08-07T15:13:37.163Z,42.90
2022-08-07T15:18:45.309Z,43.60
2022-08-07T15:25:02.387Z,44.80
2022-08-07T15:30:04.796Z,43.20
2022-08-07T15:51:13.462Z,43.30
2022-08-07T15:56:24.300Z,43.00
2022-08-07T16:01:39.419Z,42.50
2022-08-07T16:06:50.043Z,42.50
2022-08-07T16:12:02.860Z,45.30
2022-08-07T16:17:16.047Z,43.60
2022-08-07T16:22:55.032Z,42.80
2022-08-07T16:28:12.759Z,44.20
2022-08-07T16:34:03.017Z,43.00
2022-08-07T16:39:14.843Z,45.40
2022-08-07T16:45:14.730Z,42.00
2022-08-07T16:50:37.177Z,41.60
2022-08-07T16:55:48.037Z,41.30
2022-08-07T17:01:15.776Z,41.80
2022-08-07T17:06:41.126Z,42.30
2022-08-07T17:12:04.680Z,44.60
2022-08-07T17:17:43.937Z,43.70
2022-08-07T17:22:56.796Z,41.50
2022-08-07T17:28:01.758Z,42.70
2022-08-07T17:34:08.526Z,44.40
2022-08-07T17:38:45.440Z,41.20
2022-08-07T17:44:03.082Z,42.60
2022-08-07T17:49:23.189Z,43.50
2022-08-07T17:54:53.032Z,42.30
2022-08-07T17:59:56.560Z,43.60
2022-08-07T18:05:20.734Z,44.30
2022-08-07T18:10:35.287Z,48.20
2022-08-07T18:15:44.191Z,48.70
2022-08-07T18:21:11.508Z,48.80
2022-08-07T18:26:28.930Z,99.80
2022-08-07T18:31:38.709Z,99.90
2022-08-07T18:37:09.212Z,99.90
2022-08-07T18:42:18.719Z,99.90
2022-08-07T18:47:41.852Z,99.90
2022-08-07T18:53:12.537Z,99.90
2022-08-07T18:58:40.411Z,99.90
2022-08-07T19:03:49.769Z,99.90
2022-08-07T19:09:09.432Z,99.90
2022-08-07T19:14:41.112Z,99.90
2022-08-07T19:20:04.890Z,99.90
2022-08-07T19:26:22.607Z,99.90
2022-08-07T19:30:55.312Z,99.90
2022-08-07T19:36:01.988Z,99.90
2022-08-07T19:41:07.500Z,99.90
2022-08-07T19:46:40.047Z,99.90
2022-08-07T19:52:00.674Z,99.90
2022-08-07T19:58:02.926Z,99.90
2022-08-07T20:02:32.817Z,99.90
2022-08-07T20:07:46.591Z,99.90
2022-08-07T20:12:56.639Z,99.90
2022-08-07T20:18:03.492Z,99.90
2022-08-07T20:23:23.385Z,99.90
2022-08-07T20:28:38.252Z,99.90
2022-08-07T20:33:43.289Z,99.90
2022-08-07T20:38:56.810Z,99.90
2022-08-07T20:44:05.358Z,99.90
2022-08-07T20:49:59.871Z,99.90
2022-08-07T20:54:53.796Z,99.90
2022-08-07T21:00:09.247Z,99.90
2022-08-07T21:05:42.974Z,99.90
2022-08-07T21:10:44.645Z,99.90
2022-08-07T21:16:00.551Z,99.90
2022-08-07T21:21:04.431Z,99.90
2022-08-07T21:26:14.125Z,99.90
2022-08-07T21:31:49.752Z,99.90
2022-08-07T21:36:53.197Z,99.90
2022-08-07T21:42:02.517Z,99.90
2022-08-07T21:47:17.191Z,99.90
2022-08-07T21:52:33.450Z,99.90
2022-08-07T21:57:52.318Z,95.00
2022-08-07T22:03:11.052Z,94.40
2022-08-07T22:08:23.133Z,93.60
2022-08-07T22:13:50.992Z,94.40
2022-08-07T22:18:55.718Z,87.50
2022-08-07T22:24:08.193Z,92.10
2022-08-07T22:29:16.059Z,86.00
2022-08-07T22:34:29.088Z,78.90
2022-08-07T22:39:53.465Z,78.00
2022-08-07T22:44:59.529Z,77.30
2022-08-07T22:50:37.573Z,76.60
2022-08-07T22:55:58.583Z,77.00
2022-08-07T23:01:19.014Z,78.00
2022-08-07T23:06:33.037Z,79.90
2022-08-07T23:11:46.239Z,81.20
2022-08-07T23:17:08.601Z,81.70
2022-08-07T23:22:25.798Z,81.60
2022-08-07T23:28:20.025Z,81.30
2022-08-07T23:34:33.935Z,81.50
2022-08-07T23:38:55.053Z,82.30
2022-08-07T23:44:14.341Z,82.20
2022-08-07T23:49:42.090Z,82.30
2022-08-07T23:55:01.484Z,81.80
